createdAt,value
2023-05-02T00:00:49.793Z,11.23
2023-05-02T00:03:17.308Z,11.27
2023-05-02T00:08:11.159Z,11.57
2023-05-02T00:10:37.551Z,10.75
2023-05-02T00:13:04.046Z,10.50
2023-05-02T00:15:30.496Z,10.70
2023-05-02T00:17:56.891Z,10.88
2023-05-02T00:20:23.354Z,10.27
2023-05-02T00:22:49.755Z,10.15
2023-05-02T00:25:17.079Z,10.23
2023-05-02T00:27:46.933Z,9.10
2023-05-02T00:30:14.221Z,8.82
2023-05-02T00:32:40.818Z,7.05
2023-05-02T00:35:08.415Z,7.22
2023-05-02T00:37:35.212Z,6.32
2023-05-02T00:40:02.856Z,6.07
2023-05-02T00:42:31.556Z,6.70
2023-05-02T00:44:58.016Z,6.72
2023-05-02T00:47:24.526Z,6.43
2023-05-02T00:49:51.010Z,5.85
2023-05-02T00:52:17.341Z,6.32
2023-05-02T00:54:43.974Z,6.45
2023-05-02T00:57:10.705Z,6.15
2023-05-02T00:59:37.640Z,6.20
2023-05-02T01:02:35.182Z,6.25
2023-05-02T01:05:25.553Z,5.55
2023-05-02T01:07:59.425Z,5.78
2023-05-02T01:10:44.696Z,4.53
2023-05-02T01:13:20.971Z,4.53
2023-05-02T01:15:51.500Z,3.58
2023-05-02T01:18:20.967Z,3.25
2023-05-02T01:20:50.825Z,3.60
2023-05-02T01:23:52.558Z,2.72
2023-05-02T01:26:26.977Z,2.30
2023-05-02T01:31:33.308Z,2.05
2023-05-02T01:34:02.230Z,2.00
2023-05-02T01:36:31.558Z,1.90
2023-05-02T01:39:00.274Z,2.22
2023-05-02T01:41:28.991Z,2.50
2023-05-02T01:43:58.467Z,2.55
2023-05-02T01:46:32.682Z,2.97
2023-05-02T01:49:03.104Z,2.65
2023-05-02T01:51:33.087Z,2.70
2023-05-02T01:54:08.400Z,2.58
2023-05-02T01:56:37.844Z,2.63
2023-05-02T01:59:17.170Z,2.72
2023-05-02T02:01:44.866Z,2.15
2023-05-02T02:04:14.902Z,2.45
2023-05-02T02:06:46.945Z,1.92
2023-05-02T02:09:14.353Z,2.20
2023-05-02T02:11:52.220Z,2.25
2023-05-02T02:14:21.623Z,2.35
2023-05-02T02:16:50.737Z,2.40
2023-05-02T02:19:18.111Z,2.50
2023-05-02T02:21:47.978Z,2.35
2023-05-02T02:24:17.773Z,2.10
2023-05-02T02:26:44.385Z,2.30
2023-05-02T02:29:11.283Z,1.95
2023-05-02T02:31:39.435Z,2.28
2023-05-02T02:34:06.437Z,1.80
2023-05-02T02:36:48.555Z,1.70
2023-05-02T02:39:42.968Z,1.50
2023-05-02T02:42:29.653Z,1.38
2023-05-02T02:45:14.334Z,2.22
2023-05-02T02:47:58.775Z,1.52
2023-05-02T02:50:32.944Z,1.27
2023-05-02T02:53:04.240Z,1.40
2023-05-02T02:55:38.825Z,1.40
2023-05-02T02:58:18.830Z,1.20
2023-05-02T03:00:47.131Z,1.45
2023-05-02T03:03:15.172Z,1.55
2023-05-02T03:05:44.001Z,1.98
2023-05-02T03:08:10.472Z,1.40
2023-05-02T03:10:36.866Z,1.60
2023-05-02T03:13:03.249Z,1.85
2023-05-02T03:15:54.170Z,1.63
2023-05-02T03:18:20.712Z,1.52
2023-05-02T03:20:47.093Z,1.67
2023-05-02T03:23:13.418Z,1.75
2023-05-02T03:25:39.730Z,1.65
2023-05-02T03:28:06.112Z,1.88
2023-05-02T03:30:32.507Z,1.70
2023-05-02T03:33:00.523Z,1.52
2023-05-02T03:35:27.004Z,2.13
2023-05-02T03:37:53.363Z,1.45
2023-05-02T03:40:21.750Z,1.63
2023-05-02T03:42:48.211Z,2.33
2023-05-02T03:45:14.664Z,2.05
2023-05-02T03:47:41.436Z,1.63
2023-05-02T03:50:08.103Z,1.55
2023-05-02T03:52:34.434Z,2.30
2023-05-02T03:55:01.656Z,2.10
2023-05-02T03:57:31.194Z,1.70
2023-05-02T03:59:57.705Z,1.85
2023-05-02T04:02:25.175Z,1.95
2023-05-02T04:04:52.040Z,1.80
2023-05-02T04:07:19.373Z,1.80
2023-05-02T04:09:46.007Z,2.00
2023-05-02T04:12:15.106Z,2.10
2023-05-02T04:14:41.514Z,2.08
2023-05-02T04:17:08.120Z,1.90
2023-05-02T04:19:35.135Z,2.60
2023-05-02T04:22:02.832Z,1.85
2023-05-02T04:24:29.375Z,1.75
2023-05-02T04:26:55.696Z,1.85
2023-05-02T04:29:22.057Z,1.60
2023-05-02T04:31:49.101Z,1.88
2023-05-02T04:34:15.717Z,2.17
2023-05-02T04:36:42.123Z,1.90
2023-05-02T04:39:08.671Z,1.80
2023-05-02T04:41:35.169Z,1.83
2023-05-02T04:44:01.644Z,2.28
2023-05-02T04:46:28.229Z,1.52
2023-05-02T04:48:54.672Z,1.90
2023-05-02T04:51:21.098Z,1.90
2023-05-02T04:53:47.439Z,2.03
2023-05-02T04:56:13.929Z,1.95
2023-05-02T04:58:40.525Z,1.92
2023-05-02T05:01:07.146Z,1.92
2023-05-02T05:03:33.734Z,1.90
2023-05-02T05:06:00.276Z,2.00
2023-05-02T05:08:27.362Z,2.40
2023-05-02T05:10:53.758Z,2.20
2023-05-02T05:13:20.111Z,2.22
2023-05-02T05:15:47.674Z,2.88
2023-05-02T05:18:14.831Z,2.13
2023-05-02T05:20:41.254Z,1.88
2023-05-02T05:23:07.597Z,2.58
2023-05-02T05:25:33.985Z,2.38
2023-05-02T05:28:00.916Z,2.90
2023-05-02T05:30:27.409Z,2.63
2023-05-02T05:32:53.828Z,2.15
2023-05-02T05:35:20.220Z,2.28
2023-05-02T05:37:46.591Z,2.60
2023-05-02T05:40:13.285Z,2.20
2023-05-02T05:42:39.603Z,2.25
2023-05-02T05:45:06.601Z,2.10
2023-05-02T05:47:33.161Z,3.40
2023-05-02T05:49:59.736Z,2.50
2023-05-02T05:52:26.739Z,2.15
2023-05-02T05:54:59.691Z,2.50
2023-05-02T05:57:26.512Z,2.47
2023-05-02T05:59:52.925Z,3.20
2023-05-02T06:02:19.804Z,2.75
2023-05-02T06:04:47.018Z,3.17
2023-05-02T06:07:13.521Z,3.40
2023-05-02T06:09:40.223Z,3.00
2023-05-02T06:12:06.727Z,3.22
2023-05-02T06:14:33.117Z,2.90
2023-05-02T06:17:00.614Z,3.13
2023-05-02T06:19:27.101Z,3.20
2023-05-02T06:21:53.855Z,2.55
2023-05-02T06:26:47.646Z,2.33
2023-05-02T06:29:13.978Z,2.40
2023-05-02T06:31:40.445Z,1.70
2023-05-02T06:34:06.904Z,2.25
2023-05-02T06:36:33.620Z,1.80
2023-05-02T06:38:59.970Z,2.10
2023-05-02T06:41:26.292Z,2.05
2023-05-02T06:43:52.661Z,2.00
2023-05-02T06:46:20.645Z,1.90
2023-05-02T06:48:47.073Z,2.05
2023-05-02T06:51:14.660Z,2.35
2023-05-02T06:53:41.540Z,2.53
2023-05-02T06:56:08.227Z,2.80
2023-05-02T06:58:34.602Z,2.40
2023-05-02T07:01:01.055Z,2.90
2023-05-02T07:03:27.493Z,2.28
2023-05-02T07:05:53.883Z,2.65
2023-05-02T07:08:22.334Z,2.13
2023-05-02T07:10:48.708Z,2.47
2023-05-02T07:13:15.032Z,2.47
2023-05-02T07:15:41.554Z,2.63
2023-05-02T07:18:07.932Z,2.22
2023-05-02T07:20:34.478Z,2.47
2023-05-02T07:23:00.808Z,2.17
2023-05-02T07:25:27.262Z,1.90
2023-05-02T07:27:53.619Z,2.25
2023-05-02T07:30:20.032Z,2.42
2023-05-02T07:32:46.409Z,2.40
2023-05-02T07:35:13.258Z,2.30
2023-05-02T07:37:39.567Z,2.25
2023-05-02T07:40:07.917Z,2.15
2023-05-02T07:42:34.903Z,2.00
2023-05-02T07:45:01.297Z,2.78
2023-05-02T07:47:28.180Z,2.13
2023-05-02T07:49:55.600Z,2.38
2023-05-02T07:52:22.034Z,2.25
2023-05-02T07:54:49.418Z,2.55
2023-05-02T07:57:15.966Z,1.92
2023-05-02T07:59:42.336Z,1.90
2023-05-02T08:02:09.032Z,1.90
2023-05-02T08:04:35.578Z,1.77
2023-05-02T08:07:02.022Z,1.90
2023-05-02T08:09:28.429Z,2.10
2023-05-02T08:11:54.826Z,2.35
2023-05-02T08:14:21.343Z,1.88
2023-05-02T08:16:47.811Z,1.77
2023-05-02T08:19:15.150Z,2.05
2023-05-02T08:21:42.356Z,1.65
2023-05-02T08:24:08.666Z,1.45
2023-05-02T08:26:35.034Z,1.73
2023-05-02T08:29:01.478Z,1.63
2023-05-02T08:31:27.879Z,1.30
2023-05-02T08:33:54.221Z,1.48
2023-05-02T08:36:20.616Z,1.70
2023-05-02T08:38:47.116Z,1.50
2023-05-02T08:41:18.420Z,1.75
2023-05-02T08:43:46.138Z,1.40
2023-05-02T08:46:14.118Z,1.50
2023-05-02T08:48:42.636Z,1.50
2023-05-02T08:51:11.017Z,1.38
2023-05-02T08:53:38.575Z,1.60
2023-05-02T08:56:07.139Z,1.50
2023-05-02T08:58:33.938Z,1.45
2023-05-02T09:01:02.781Z,1.23
2023-05-02T09:03:31.928Z,1.45
2023-05-02T09:06:06.606Z,1.60
2023-05-02T09:08:34.502Z,1.50
2023-05-02T09:11:03.735Z,1.48
2023-05-02T09:13:43.702Z,1.65
2023-05-02T09:16:12.463Z,1.60
2023-05-02T09:18:43.940Z,1.60
2023-05-02T09:21:13.606Z,1.33
2023-05-02T09:23:45.054Z,1.58
2023-05-02T09:26:15.723Z,1.60
2023-05-02T09:28:48.714Z,1.20
2023-05-02T09:31:27.042Z,1.58
2023-05-02T09:34:15.502Z,1.40
2023-05-02T09:36:44.052Z,1.60
2023-05-02T09:39:22.494Z,1.40
2023-05-02T09:41:50.611Z,1.35
2023-05-02T09:44:25.186Z,1.70
2023-05-02T09:46:53.943Z,1.95
2023-05-02T09:49:39.580Z,1.50
2023-05-02T09:52:13.532Z,1.90
2023-05-02T09:54:40.240Z,1.70
2023-05-02T09:57:07.301Z,1.75
2023-05-02T10:02:03.385Z,1.80
2023-05-02T10:04:32.078Z,1.88
2023-05-02T10:06:59.330Z,1.88
2023-05-02T10:09:28.144Z,1.85
2023-05-02T10:11:56.428Z,1.80
2023-05-02T10:14:27.020Z,1.60
2023-05-02T10:16:58.615Z,1.92
2023-05-02T10:19:30.270Z,1.85
2023-05-02T10:21:59.143Z,1.77
2023-05-02T10:24:26.638Z,1.80
2023-05-02T10:26:53.531Z,1.90
2023-05-02T10:29:20.408Z,1.80
2023-05-02T10:31:48.089Z,2.25
2023-05-02T10:34:16.923Z,2.10
2023-05-02T10:36:43.281Z,2.10
2023-05-02T10:39:09.913Z,1.92
2023-05-02T10:41:39.583Z,1.73
2023-05-02T10:44:08.835Z,1.83
2023-05-02T10:46:37.394Z,2.10
2023-05-02T10:49:12.433Z,1.98
2023-05-02T10:51:42.744Z,2.00
2023-05-02T10:54:23.352Z,1.50
2023-05-02T10:57:03.247Z,2.08
2023-05-02T10:59:37.702Z,2.05
2023-05-02T11:02:37.871Z,1.73
2023-05-02T11:05:05.517Z,2.33
2023-05-02T11:07:33.914Z,2.05
2023-05-02T11:10:15.745Z,2.15
2023-05-02T11:12:49.246Z,2.00
2023-05-02T11:15:41.398Z,2.20
2023-05-02T11:18:09.652Z,2.40
2023-05-02T11:20:39.410Z,2.05
2023-05-02T11:23:21.710Z,2.10
2023-05-02T11:25:56.432Z,2.67
2023-05-02T11:28:45.738Z,2.60
2023-05-02T11:31:27.265Z,2.42
2023-05-02T11:34:00.752Z,2.40
2023-05-02T11:36:34.202Z,2.28
2023-05-02T11:39:02.036Z,2.30
2023-05-02T11:41:44.093Z,2.47
2023-05-02T11:44:10.422Z,2.30
2023-05-02T11:46:38.392Z,2.40
2023-05-02T11:49:07.006Z,2.75
2023-05-02T11:51:35.614Z,2.30
2023-05-02T11:54:02.429Z,2.50
2023-05-02T11:56:28.830Z,2.70
2023-05-02T11:58:59.944Z,2.58
2023-05-02T12:01:26.714Z,2.67
2023-05-02T12:04:10.327Z,2.50
2023-05-02T12:06:36.878Z,2.38
2023-05-02T12:09:10.736Z,2.05
2023-05-02T12:14:06.371Z,2.60
2023-05-02T12:16:33.003Z,2.42
2023-05-02T12:19:01.045Z,2.55
2023-05-02T12:21:32.679Z,2.22
2023-05-02T12:24:00.416Z,2.28
2023-05-02T12:26:31.728Z,2.72
2023-05-02T12:28:58.926Z,2.35
2023-05-02T12:33:57.271Z,2.10
2023-05-02T12:36:24.167Z,2.55
2023-05-02T12:38:59.245Z,2.50
2023-05-02T12:41:32.159Z,2.20
2023-05-02T12:44:00.585Z,2.28
2023-05-02T12:46:28.351Z,2.95
2023-05-02T12:49:05.744Z,2.28
2023-05-02T12:51:32.927Z,2.15
2023-05-02T12:53:59.364Z,2.28
2023-05-02T12:56:31.859Z,2.60
2023-05-02T12:59:03.552Z,2.20
2023-05-02T13:01:30.056Z,2.40
2023-05-02T13:03:56.526Z,2.15
2023-05-02T13:06:22.977Z,2.40
2023-05-02T13:08:49.328Z,2.42
2023-05-02T13:11:15.770Z,2.20
2023-05-02T13:13:42.198Z,2.03
2023-05-02T13:16:08.705Z,1.80
2023-05-02T13:18:35.208Z,2.50
2023-05-02T13:21:01.638Z,2.00
2023-05-02T13:23:28.025Z,1.70
2023-05-02T13:25:54.427Z,2.10
2023-05-02T13:28:20.773Z,1.98
2023-05-02T13:30:47.141Z,2.20
2023-05-02T13:33:13.564Z,2.05
2023-05-02T13:35:39.883Z,1.80
2023-05-02T13:38:06.291Z,2.00
2023-05-02T13:40:32.606Z,2.25
2023-05-02T13:42:59.136Z,1.90
2023-05-02T13:45:25.505Z,2.60
2023-05-02T13:47:51.911Z,1.85
2023-05-02T13:50:18.313Z,2.20
2023-05-02T13:52:46.407Z,1.95
2023-05-02T13:55:14.144Z,2.00
2023-05-02T13:57:40.472Z,1.90
2023-05-02T14:00:09.602Z,1.83
2023-05-02T14:02:36.656Z,1.77
2023-05-02T14:05:03.164Z,1.80
2023-05-02T14:07:29.573Z,2.20
2023-05-02T14:09:56.292Z,1.75
2023-05-02T14:12:22.609Z,1.92
2023-05-02T14:14:48.963Z,1.77
2023-05-02T14:17:15.343Z,1.73
2023-05-02T14:19:41.757Z,2.35
2023-05-02T14:22:08.083Z,1.60
2023-05-02T14:24:34.398Z,1.85
2023-05-02T14:27:01.376Z,1.63
2023-05-02T14:29:27.745Z,2.03
2023-05-02T14:31:54.104Z,1.77
2023-05-02T14:34:21.902Z,1.60
2023-05-02T14:36:48.224Z,1.67
2023-05-02T14:39:14.643Z,1.80
2023-05-02T14:41:40.990Z,1.67
2023-05-02T14:44:07.375Z,1.63
2023-05-02T14:46:33.859Z,2.28
2023-05-02T14:49:00.462Z,1.77
2023-05-02T14:51:26.804Z,2.10
2023-05-02T14:53:54.278Z,1.73
2023-05-02T14:56:21.592Z,1.65
2023-05-02T14:58:47.977Z,1.75
2023-05-02T15:01:18.675Z,1.65
2023-05-02T15:04:04.918Z,1.60
2023-05-02T15:06:32.998Z,1.60
2023-05-02T15:08:59.528Z,1.73
2023-05-02T15:11:26.008Z,1.60
2023-05-02T15:13:52.430Z,1.88
2023-05-02T15:16:18.803Z,1.80
2023-05-02T15:18:45.409Z,1.65
2023-05-02T15:21:11.939Z,1.70
2023-05-02T15:23:38.365Z,1.70
2023-05-02T15:26:04.759Z,1.70
2023-05-02T15:28:31.221Z,1.60
2023-05-02T15:30:57.623Z,1.85
2023-05-02T15:33:24.049Z,1.70
2023-05-02T15:35:55.482Z,1.60
2023-05-02T15:38:22.301Z,1.70
2023-05-02T15:43:22.236Z,2.47
2023-05-02T15:45:54.076Z,1.92
2023-05-02T15:48:21.131Z,1.77
2023-05-02T15:53:18.447Z,1.73
2023-05-02T15:55:46.327Z,1.88
2023-05-02T15:58:13.135Z,1.60
2023-05-02T16:00:39.581Z,1.70
2023-05-02T16:03:06.401Z,1.45
2023-05-02T16:05:33.693Z,1.35
2023-05-02T16:10:26.993Z,1.58
2023-05-02T16:13:01.130Z,1.67
2023-05-02T16:15:28.562Z,1.60
2023-05-02T16:17:54.895Z,1.40
2023-05-02T16:20:21.308Z,1.42
2023-05-02T16:22:48.393Z,1.35
2023-05-02T16:25:16.432Z,1.65
2023-05-02T16:27:43.189Z,1.60
2023-05-02T16:30:10.190Z,1.60
2023-05-02T16:32:40.448Z,1.60
2023-05-02T16:35:12.745Z,1.73
2023-05-02T16:37:41.094Z,1.38
2023-05-02T16:40:09.205Z,1.23
2023-05-02T16:42:36.225Z,1.92
2023-05-02T16:45:03.025Z,1.70
2023-05-02T16:47:29.478Z,1.60
2023-05-02T16:49:59.794Z,1.40
2023-05-02T16:52:27.410Z,1.55
2023-05-02T16:54:54.380Z,1.60
2023-05-02T16:57:21.618Z,1.38
2023-05-02T16:59:49.385Z,1.50
2023-05-02T17:02:16.704Z,1.60
2023-05-02T17:04:43.664Z,1.45
2023-05-02T17:07:13.426Z,1.60
2023-05-02T17:09:41.694Z,1.90
2023-05-02T17:12:10.665Z,1.30
2023-05-02T17:14:42.387Z,1.45
2023-05-02T17:17:09.722Z,1.33
2023-05-02T17:19:36.569Z,1.80
2023-05-02T17:22:04.863Z,1.40
2023-05-02T17:24:31.392Z,1.48
2023-05-02T17:26:57.922Z,1.30
2023-05-02T17:29:24.298Z,1.40
2023-05-02T17:31:51.087Z,1.25
2023-05-02T17:34:25.548Z,1.40
2023-05-02T17:36:52.001Z,1.40
2023-05-02T17:39:18.541Z,1.40
2023-05-02T17:41:45.167Z,1.50
2023-05-02T17:44:11.514Z,1.50
2023-05-02T17:46:38.039Z,1.40
2023-05-02T17:49:04.502Z,1.40
2023-05-02T17:51:31.999Z,1.20
2023-05-02T17:53:58.383Z,1.50
2023-05-02T17:56:24.694Z,1.65
2023-05-02T17:58:51.911Z,1.20
2023-05-02T18:01:18.376Z,0.95
2023-05-02T18:03:45.281Z,1.20
2023-05-02T18:06:16.657Z,1.10
2023-05-02T18:08:43.870Z,1.20
2023-05-02T18:11:15.469Z,1.30
2023-05-02T18:13:42.112Z,1.17
2023-05-02T18:16:08.524Z,1.00
2023-05-02T18:18:36.332Z,1.10
2023-05-02T18:21:03.674Z,1.20
2023-05-02T18:23:30.139Z,1.20
2023-05-02T18:25:56.671Z,1.30
2023-05-02T18:28:23.294Z,1.15
2023-05-02T18:30:49.665Z,0.75
2023-05-02T18:33:16.086Z,1.10
2023-05-02T18:35:49.054Z,1.08
2023-05-02T18:38:16.094Z,1.30
2023-05-02T18:40:43.089Z,1.05
2023-05-02T18:43:09.526Z,1.30
2023-05-02T18:45:36.041Z,1.20
2023-05-02T18:48:03.375Z,1.48
2023-05-02T18:50:29.898Z,1.38
2023-05-02T18:52:56.227Z,1.13
2023-05-02T18:55:25.245Z,1.30
2023-05-02T18:57:51.968Z,1.10
2023-05-02T19:00:20.097Z,1.33
2023-05-02T19:02:46.763Z,1.27
2023-05-02T19:05:13.446Z,1.30
2023-05-02T19:07:39.793Z,1.20
2023-05-02T19:10:06.501Z,1.17
2023-05-02T19:12:33.143Z,1.10
2023-05-02T19:15:00.601Z,1.30
2023-05-02T19:19:56.137Z,0.90
2023-05-02T19:22:23.876Z,1.02
2023-05-02T19:24:50.888Z,1.13
2023-05-02T19:27:17.292Z,1.10
2023-05-02T19:29:43.648Z,1.20
2023-05-02T19:32:10.192Z,1.20
2023-05-02T19:34:36.906Z,1.23
2023-05-02T19:37:03.981Z,1.40
2023-05-02T19:39:31.393Z,1.00
2023-05-02T19:41:57.778Z,1.23
2023-05-02T19:44:24.190Z,1.08
2023-05-02T19:46:51.034Z,1.15
2023-05-02T19:49:17.399Z,1.15
2023-05-02T19:51:43.787Z,1.13
2023-05-02T19:54:10.341Z,1.55
2023-05-02T19:56:36.894Z,1.40
2023-05-02T19:59:03.352Z,1.15
2023-05-02T20:01:31.215Z,1.30
2023-05-02T20:03:58.045Z,1.40
2023-05-02T20:06:24.526Z,1.33
2023-05-02T20:08:52.389Z,1.23
2023-05-02T20:13:45.739Z,1.30
2023-05-02T20:16:13.514Z,1.30
2023-05-02T20:21:06.285Z,1.17
2023-05-02T20:23:32.677Z,1.20
2023-05-02T20:25:59.375Z,1.42
2023-05-02T20:28:25.952Z,1.40
2023-05-02T20:30:52.277Z,1.20
2023-05-02T20:33:18.854Z,1.27
2023-05-02T20:35:45.849Z,1.40
2023-05-02T20:38:12.305Z,1.30
2023-05-02T20:40:40.466Z,1.30
2023-05-02T20:43:07.397Z,1.45
2023-05-02T20:45:33.778Z,1.50
2023-05-02T20:48:00.173Z,1.35
2023-05-02T20:50:27.102Z,1.40
2023-05-02T20:52:54.296Z,1.60
2023-05-02T20:55:22.647Z,1.70
2023-05-02T20:57:52.803Z,1.90
2023-05-02T21:00:22.226Z,1.70
2023-05-02T21:02:49.183Z,2.10
2023-05-02T21:05:15.750Z,1.35
2023-05-02T21:07:42.116Z,1.60
2023-05-02T21:10:09.235Z,1.85
2023-05-02T21:12:35.776Z,1.50
2023-05-02T21:15:02.518Z,1.60
2023-05-02T21:17:28.919Z,1.58
2023-05-02T21:19:56.046Z,1.63
2023-05-02T21:22:22.515Z,1.98
2023-05-02T21:24:50.094Z,1.77
2023-05-02T21:27:16.529Z,1.60
2023-05-02T21:29:42.992Z,1.63
2023-05-02T21:32:09.400Z,1.25
2023-05-02T21:34:36.214Z,1.90
2023-05-02T21:37:02.724Z,1.52
2023-05-02T21:39:29.158Z,1.73
2023-05-02T21:41:56.250Z,1.60
2023-05-02T21:44:22.718Z,1.58
2023-05-02T21:46:50.357Z,1.95
2023-05-02T21:49:16.963Z,1.65
2023-05-02T21:51:43.381Z,1.65
2023-05-02T21:54:09.832Z,2.20
2023-05-02T21:56:36.206Z,1.65
2023-05-02T21:59:02.884Z,1.73
2023-05-02T22:01:29.446Z,1.63
2023-05-02T22:03:56.511Z,1.60
2023-05-02T22:06:23.022Z,1.70
2023-05-02T22:08:49.365Z,1.85
2023-05-02T22:11:15.883Z,1.80
2023-05-02T22:13:42.277Z,1.67
2023-05-02T22:16:08.724Z,1.70
2023-05-02T22:18:35.162Z,1.65
2023-05-02T22:21:02.054Z,1.70
2023-05-02T22:23:28.460Z,1.92
2023-05-02T22:25:54.847Z,1.83
2023-05-02T22:28:21.179Z,1.77
2023-05-02T22:30:47.605Z,1.77
2023-05-02T22:33:14.172Z,2.00
2023-05-02T22:35:40.727Z,2.00
2023-05-02T22:38:08.933Z,1.80
2023-05-02T22:40:35.378Z,2.13
2023-05-02T22:43:01.761Z,1.80
2023-05-02T22:45:28.157Z,1.92
2023-05-02T22:47:55.052Z,2.00
2023-05-02T22:50:21.518Z,1.90
2023-05-02T22:52:49.345Z,2.28
2023-05-02T22:57:42.710Z,1.85
2023-05-02T23:00:10.854Z,1.75
2023-05-02T23:02:37.449Z,1.70
2023-05-02T23:05:04.411Z,2.35
2023-05-02T23:07:30.851Z,1.92
2023-05-02T23:09:57.225Z,2.08
2023-05-02T23:12:23.700Z,1.77
2023-05-02T23:14:50.077Z,1.80
2023-05-02T23:17:16.446Z,2.20
2023-05-02T23:19:42.786Z,2.28
2023-05-02T23:22:09.111Z,2.25
2023-05-02T23:24:35.519Z,2.25
2023-05-02T23:27:01.860Z,2.60
2023-05-02T23:29:28.481Z,2.35
2023-05-02T23:31:55.449Z,2.22
2023-05-02T23:34:22.150Z,2.25
2023-05-02T23:36:49.003Z,2.42
2023-05-02T23:39:15.418Z,2.58
2023-05-02T23:41:42.261Z,2.05
2023-05-02T23:44:08.623Z,2.80
2023-05-02T23:46:34.980Z,2.53
2023-05-02T23:49:01.327Z,2.50
2023-05-02T23:51:28.369Z,2.47
2023-05-02T23:53:54.869Z,2.55
2023-05-02T23:56:21.300Z,1.90
2023-05-02T23:58:47.658Z,2.30
